createdAt,value
2023-04-24T00:01:16.198Z,14.80
2023-04-24T00:03:43.142Z,14.60
2023-04-24T00:06:10.134Z,14.50
2023-04-24T00:08:37.286Z,14.60
2023-04-24T00:11:04.458Z,14.50
2023-04-24T00:13:31.551Z,14.60
2023-04-24T00:15:58.456Z,14.40
2023-04-24T00:18:25.358Z,14.40
2023-04-24T00:20:52.202Z,14.40
2023-04-24T00:23:19.121Z,14.40
2023-04-24T00:25:45.978Z,14.50
2023-04-24T00:28:12.860Z,14.40
2023-04-24T00:30:39.664Z,14.40
2023-04-24T00:33:06.727Z,14.60
2023-04-24T00:35:33.496Z,14.30
2023-04-24T00:38:00.519Z,14.50
2023-04-24T00:40:28.429Z,14.50
2023-04-24T00:42:55.303Z,14.40
2023-04-24T00:45:22.303Z,14.30
2023-04-24T00:47:50.314Z,14.20
2023-04-24T00:50:17.359Z,14.50
2023-04-24T00:52:44.338Z,14.30
2023-04-24T00:55:11.519Z,14.10
2023-04-24T00:57:38.933Z,14.00
2023-04-24T01:00:11.343Z,14.00
2023-04-24T01:02:41.408Z,13.90
2023-04-24T01:05:12.696Z,14.10
2023-04-24T01:07:44.807Z,13.90
2023-04-24T01:10:12.506Z,13.90
2023-04-24T01:12:39.489Z,13.80
2023-04-24T01:15:07.573Z,13.90
2023-04-24T01:17:34.708Z,13.80
2023-04-24T01:20:01.987Z,13.70
2023-04-24T01:22:28.904Z,13.70
2023-04-24T01:24:55.800Z,13.70
2023-04-24T01:27:22.729Z,13.70
2023-04-24T01:29:50.378Z,13.70
2023-04-24T01:32:17.655Z,13.60
2023-04-24T01:34:45.641Z,13.60
2023-04-24T01:37:12.647Z,13.60
2023-04-24T01:39:39.738Z,13.60
2023-04-24T01:42:07.962Z,13.50
2023-04-24T01:44:35.359Z,13.50
2023-04-24T01:47:02.954Z,13.50
2023-04-24T01:49:30.128Z,13.50
2023-04-24T01:51:56.998Z,13.40
2023-04-24T01:54:23.847Z,13.70
2023-04-24T01:56:50.943Z,13.60
2023-04-24T01:59:18.634Z,13.40
2023-04-24T02:01:45.648Z,13.40
2023-04-24T02:04:12.823Z,13.30
2023-04-24T02:06:39.905Z,13.40
2023-04-24T02:09:06.773Z,13.30
2023-04-24T02:11:33.560Z,13.30
2023-04-24T02:14:00.404Z,13.40
2023-04-24T02:16:27.342Z,13.20
2023-04-24T02:18:54.171Z,13.20
2023-04-24T02:21:21.050Z,13.20
2023-04-24T02:23:47.888Z,13.10
2023-04-24T02:26:14.680Z,13.10
2023-04-24T02:28:41.528Z,13.10
2023-04-24T02:31:08.391Z,13.30
2023-04-24T02:33:35.215Z,13.10
2023-04-24T02:36:02.799Z,13.00
2023-04-24T02:38:30.282Z,13.00
2023-04-24T02:40:57.147Z,13.10
2023-04-24T02:43:24.067Z,13.30
2023-04-24T02:45:51.333Z,13.00
2023-04-24T02:48:18.278Z,13.10
2023-04-24T02:50:45.922Z,13.20
2023-04-24T02:53:38.092Z,12.90
2023-04-24T02:56:05.004Z,12.90
2023-04-24T02:58:31.876Z,12.90
2023-04-24T03:00:58.807Z,12.80
2023-04-24T03:03:26.296Z,12.80
2023-04-24T03:05:53.391Z,12.80
2023-04-24T03:08:20.264Z,12.80
2023-04-24T03:10:48.285Z,12.70
2023-04-24T03:13:16.685Z,12.70
2023-04-24T03:15:43.649Z,12.70
2023-04-24T03:18:10.645Z,12.70
2023-04-24T03:20:38.518Z,12.60
2023-04-24T03:23:05.620Z,12.60
2023-04-24T03:25:32.437Z,12.60
2023-04-24T03:27:59.379Z,12.50
2023-04-24T03:30:26.300Z,12.50
2023-04-24T03:32:53.187Z,12.50
2023-04-24T03:35:20.103Z,12.50
2023-04-24T03:37:46.960Z,12.40
2023-04-24T03:40:13.751Z,12.40
2023-04-24T03:42:40.691Z,12.40
2023-04-24T03:45:08.316Z,12.40
2023-04-24T03:47:35.253Z,12.30
2023-04-24T03:50:02.583Z,12.30
2023-04-24T03:52:29.464Z,12.50
2023-04-24T03:54:56.547Z,12.30
2023-04-24T03:57:23.530Z,12.40
2023-04-24T03:59:50.400Z,12.20
2023-04-24T04:02:17.251Z,12.20
2023-04-24T04:04:44.480Z,12.40
2023-04-24T04:07:12.226Z,12.40
2023-04-24T04:09:39.185Z,12.10
2023-04-24T04:12:06.211Z,12.10
2023-04-24T04:14:33.178Z,12.10
2023-04-24T04:17:00.096Z,12.30
2023-04-24T04:19:27.317Z,12.30
2023-04-24T04:21:57.186Z,12.10
2023-04-24T04:24:25.284Z,12.40
2023-04-24T04:26:53.158Z,12.40
2023-04-24T04:29:20.159Z,12.20
2023-04-24T04:31:47.173Z,12.50
2023-04-24T04:34:15.074Z,12.50
2023-04-24T04:36:43.012Z,12.50
2023-04-24T04:39:09.937Z,12.70
2023-04-24T04:41:36.775Z,13.00
2023-04-24T04:44:05.590Z,13.40
2023-04-24T04:46:35.658Z,13.30
2023-04-24T04:49:03.157Z,13.60
2023-04-24T04:51:30.326Z,13.60
2023-04-24T04:53:57.290Z,13.50
2023-04-24T04:56:24.141Z,13.50
2023-04-24T04:58:51.101Z,13.60
2023-04-24T05:01:18.548Z,13.70
2023-04-24T05:03:45.755Z,13.70
2023-04-24T05:06:12.752Z,13.80
2023-04-24T05:08:39.721Z,13.90
2023-04-24T05:11:07.305Z,13.90
2023-04-24T05:13:40.557Z,14.00
2023-04-24T05:16:08.622Z,14.00
2023-04-24T05:18:35.736Z,14.00
2023-04-24T05:21:02.999Z,14.10
2023-04-24T05:23:29.961Z,14.20
2023-04-24T05:25:57.191Z,14.20
2023-04-24T05:28:24.199Z,14.30
2023-04-24T05:30:51.265Z,14.40
2023-04-24T05:33:18.066Z,14.50
2023-04-24T05:35:47.581Z,14.50
2023-04-24T05:38:14.844Z,14.60
2023-04-24T05:40:41.714Z,14.70
2023-04-24T05:43:08.611Z,14.80
2023-04-24T05:45:37.074Z,14.80
2023-04-24T05:48:04.755Z,14.80
2023-04-24T05:50:31.781Z,14.80
2023-04-24T05:53:03.051Z,14.80
2023-04-24T05:55:31.203Z,14.90
2023-04-24T05:57:58.054Z,14.90
2023-04-24T06:00:25.836Z,15.10
2023-04-24T06:02:54.126Z,15.20
2023-04-24T06:05:21.409Z,15.50
2023-04-24T06:07:49.151Z,15.70
2023-04-24T06:10:16.558Z,15.90
2023-04-24T06:12:43.560Z,16.00
2023-04-24T06:15:11.057Z,15.90
2023-04-24T06:17:37.949Z,15.90
2023-04-24T06:20:06.843Z,15.90
2023-04-24T06:22:33.770Z,15.80
2023-04-24T06:25:01.690Z,15.70
2023-04-24T06:27:28.523Z,15.60
2023-04-24T06:29:56.168Z,15.80
2023-04-24T06:32:25.293Z,15.70
2023-04-24T06:34:53.765Z,15.70
2023-04-24T06:37:21.669Z,15.80
2023-04-24T06:39:48.785Z,15.90
2023-04-24T06:42:15.812Z,16.00
2023-04-24T06:44:42.942Z,16.00
2023-04-24T06:47:14.543Z,16.00
2023-04-24T06:49:41.741Z,16.20
2023-04-24T06:52:12.035Z,16.60
2023-04-24T06:54:39.148Z,17.30
2023-04-24T06:57:06.133Z,17.90
2023-04-24T06:59:32.952Z,18.00
2023-04-24T07:01:59.885Z,17.90
2023-04-24T07:04:27.091Z,18.00
2023-04-24T07:06:56.877Z,18.90
2023-04-24T07:09:26.434Z,20.40
2023-04-24T07:11:54.401Z,21.10
2023-04-24T07:14:21.819Z,21.50
2023-04-24T07:16:48.722Z,23.10
2023-04-24T07:19:15.854Z,24.50
2023-04-24T07:21:42.974Z,25.80
2023-04-24T07:24:11.742Z,26.70
2023-04-24T07:26:39.210Z,26.50
2023-04-24T07:29:06.309Z,25.80
2023-04-24T07:31:33.311Z,24.80
2023-04-24T07:34:00.323Z,23.60
2023-04-24T07:36:27.910Z,22.30
2023-04-24T07:38:55.865Z,21.40
2023-04-24T07:41:24.741Z,20.40
2023-04-24T07:43:52.159Z,19.30
2023-04-24T07:46:19.514Z,18.00
2023-04-24T07:48:48.799Z,17.00
2023-04-24T07:51:16.499Z,16.10
2023-04-24T07:53:44.225Z,15.50
2023-04-24T07:56:11.198Z,15.00
2023-04-24T07:58:38.077Z,14.60
2023-04-24T08:01:05.049Z,14.40
2023-04-24T08:03:32.077Z,14.10
2023-04-24T08:05:59.138Z,14.00
2023-04-24T08:08:26.523Z,13.90
2023-04-24T08:10:53.543Z,13.80
2023-04-24T08:13:20.490Z,13.80
2023-04-24T08:15:47.717Z,14.10
2023-04-24T08:18:16.683Z,14.10
2023-04-24T08:20:43.774Z,14.10
2023-04-24T08:23:10.804Z,14.50
2023-04-24T08:25:37.824Z,14.70
2023-04-24T08:28:06.760Z,14.90
2023-04-24T08:30:39.312Z,14.90
2023-04-24T08:33:06.433Z,15.10
2023-04-24T08:35:33.472Z,15.40
2023-04-24T08:38:00.482Z,15.70
2023-04-24T08:40:31.701Z,15.90
2023-04-24T08:43:00.228Z,16.20
2023-04-24T08:45:27.349Z,16.30
2023-04-24T08:47:58.289Z,16.20
2023-04-24T08:50:26.481Z,16.20
2023-04-24T08:52:54.560Z,16.50
2023-04-24T08:55:22.197Z,16.80
2023-04-24T08:57:53.780Z,17.00
2023-04-24T09:00:22.161Z,16.80
2023-04-24T09:02:51.371Z,16.60
2023-04-24T09:05:22.246Z,16.40
2023-04-24T09:07:56.216Z,16.20
2023-04-24T09:10:26.408Z,16.10
2023-04-24T09:12:53.682Z,16.00
2023-04-24T09:15:23.871Z,15.80
2023-04-24T09:17:51.050Z,15.70
2023-04-24T09:20:18.158Z,16.00
2023-04-24T09:22:46.488Z,16.10
2023-04-24T09:25:13.731Z,16.20
2023-04-24T09:27:45.799Z,16.20
2023-04-24T09:30:13.446Z,16.30
2023-04-24T09:32:40.823Z,16.30
2023-04-24T09:35:14.724Z,16.40
2023-04-24T09:37:49.874Z,16.30
2023-04-24T09:40:21.861Z,16.50
2023-04-24T09:42:57.732Z,16.70
2023-04-24T09:45:30.061Z,16.80
2023-04-24T09:47:56.994Z,16.90
2023-04-24T09:50:24.232Z,17.20
2023-04-24T09:53:11.794Z,17.20
2023-04-24T09:55:47.159Z,17.30
2023-04-24T09:58:14.166Z,17.30
2023-04-24T10:00:41.376Z,17.30
2023-04-24T10:03:09.447Z,17.40
2023-04-24T10:05:39.730Z,17.60
2023-04-24T10:08:08.454Z,17.90
2023-04-24T10:10:39.815Z,18.00
2023-04-24T10:13:08.896Z,17.90
2023-04-24T10:15:36.474Z,17.80
2023-04-24T10:18:05.001Z,17.60
2023-04-24T10:20:32.153Z,17.60
2023-04-24T10:23:00.633Z,17.60
2023-04-24T10:25:30.740Z,17.70
2023-04-24T10:28:00.431Z,17.70
2023-04-24T10:30:30.253Z,17.70
2023-04-24T10:32:57.768Z,17.60
2023-04-24T10:35:27.645Z,17.70
2023-04-24T10:38:00.671Z,17.80
2023-04-24T10:40:35.824Z,17.90
2023-04-24T10:43:09.071Z,18.00
2023-04-24T10:45:36.429Z,18.00
2023-04-24T10:48:11.720Z,17.90
2023-04-24T10:50:44.727Z,17.50
2023-04-24T10:53:19.758Z,17.70
2023-04-24T10:56:11.822Z,17.70
2023-04-24T10:58:41.129Z,17.90
2023-04-24T11:01:08.477Z,18.00
2023-04-24T11:03:37.412Z,18.00
2023-04-24T11:06:09.272Z,18.00
2023-04-24T11:08:46.772Z,18.30
2023-04-24T11:11:16.754Z,18.30
2023-04-24T11:13:56.493Z,18.60
2023-04-24T11:16:42.125Z,19.00
2023-04-24T11:19:12.253Z,19.30
2023-04-24T11:21:39.098Z,19.40
2023-04-24T11:24:38.850Z,19.30
2023-04-24T11:27:05.718Z,19.40
2023-04-24T11:29:51.163Z,19.50
2023-04-24T11:32:38.036Z,19.40
2023-04-24T11:35:05.103Z,19.40
2023-04-24T11:37:42.883Z,19.50
2023-04-24T11:40:13.161Z,19.50
2023-04-24T11:42:42.030Z,19.60
2023-04-24T11:45:11.302Z,19.50
2023-04-24T11:47:38.586Z,19.20
2023-04-24T11:50:20.271Z,19.00
2023-04-24T11:52:54.423Z,18.90
2023-04-24T11:55:21.242Z,18.90
2023-04-24T11:57:53.897Z,18.90
2023-04-24T12:00:32.685Z,18.90
2023-04-24T12:03:12.339Z,18.90
2023-04-24T12:05:40.696Z,18.90
2023-04-24T12:08:07.870Z,18.80
2023-04-24T12:10:38.567Z,18.90
2023-04-24T12:13:06.378Z,19.10
2023-04-24T12:15:33.379Z,19.30
2023-04-24T12:18:00.499Z,19.30
2023-04-24T12:20:30.034Z,19.40
2023-04-24T12:22:58.859Z,19.30
2023-04-24T12:25:27.938Z,19.20
2023-04-24T12:28:04.084Z,19.00
2023-04-24T12:30:37.096Z,18.90
2023-04-24T12:33:04.850Z,18.80
2023-04-24T12:35:34.498Z,18.80
2023-04-24T12:38:09.550Z,18.60
2023-04-24T12:40:37.049Z,18.60
2023-04-24T12:43:20.875Z,18.30
2023-04-24T12:45:51.056Z,18.00
2023-04-24T12:48:18.145Z,17.70
2023-04-24T12:50:46.909Z,17.40
2023-04-24T12:53:15.702Z,17.20
2023-04-24T12:55:43.050Z,17.20
2023-04-24T12:58:10.189Z,17.30
2023-04-24T13:00:38.196Z,17.40
2023-04-24T13:03:05.856Z,17.30
2023-04-24T13:05:32.838Z,17.20
2023-04-24T13:07:59.790Z,17.10
2023-04-24T13:10:26.669Z,16.90
2023-04-24T13:12:53.717Z,16.70
2023-04-24T13:15:21.176Z,16.30
2023-04-24T13:17:48.164Z,16.10
2023-04-24T13:20:15.140Z,16.00
2023-04-24T13:22:42.118Z,16.10
2023-04-24T13:25:10.140Z,16.10
2023-04-24T13:27:39.552Z,16.00
2023-04-24T13:30:07.364Z,15.80
2023-04-24T13:32:36.280Z,15.70
2023-04-24T13:35:03.669Z,15.70
2023-04-24T13:37:30.670Z,15.60
2023-04-24T13:39:57.611Z,15.60
2023-04-24T13:42:24.578Z,15.40
2023-04-24T13:44:52.244Z,15.40
2023-04-24T13:47:19.249Z,15.30
2023-04-24T13:49:46.237Z,15.20
2023-04-24T13:52:13.208Z,15.20
2023-04-24T13:54:40.068Z,15.30
2023-04-24T13:57:06.963Z,15.40
2023-04-24T13:59:34.260Z,15.60
2023-04-24T14:02:01.203Z,15.80
2023-04-24T14:04:28.186Z,15.80
2023-04-24T14:06:55.421Z,15.80
2023-04-24T14:09:22.577Z,15.70
2023-04-24T14:11:49.439Z,15.70
2023-04-24T14:14:16.308Z,15.70
2023-04-24T14:16:43.483Z,15.60
2023-04-24T14:19:10.600Z,15.40
2023-04-24T14:21:37.491Z,15.50
2023-04-24T14:24:04.428Z,15.10
2023-04-24T14:26:31.419Z,14.60
2023-04-24T14:29:11.481Z,14.60
2023-04-24T14:31:42.298Z,14.30
2023-04-24T14:34:09.701Z,14.40
2023-04-24T14:36:36.580Z,14.20
2023-04-24T14:39:07.320Z,14.20
2023-04-24T14:41:36.594Z,14.10
2023-04-24T14:44:04.400Z,14.00
2023-04-24T14:46:31.621Z,13.90
2023-04-24T14:48:59.484Z,13.70
2023-04-24T14:51:26.551Z,13.50
2023-04-24T14:54:18.288Z,13.40
2023-04-24T14:56:45.507Z,13.20
2023-04-24T14:59:12.421Z,13.10
2023-04-24T15:01:39.530Z,13.00
2023-04-24T15:04:09.126Z,13.00
2023-04-24T15:06:36.667Z,12.80
2023-04-24T15:09:03.579Z,12.70
2023-04-24T15:11:30.695Z,12.70
2023-04-24T15:13:58.272Z,12.80
2023-04-24T15:16:25.945Z,12.90
2023-04-24T15:18:53.482Z,12.90
2023-04-24T15:21:20.477Z,12.90
2023-04-24T15:23:47.532Z,12.90
2023-04-24T15:26:14.901Z,12.90
2023-04-24T15:28:41.895Z,12.70
2023-04-24T15:31:08.809Z,12.50
2023-04-24T15:33:35.703Z,12.40
2023-04-24T15:36:02.624Z,12.20
2023-04-24T15:38:29.498Z,12.00
2023-04-24T15:40:56.295Z,11.90
2023-04-24T15:43:23.526Z,11.80
2023-04-24T15:45:53.564Z,12.00
2023-04-24T15:48:20.672Z,11.70
2023-04-24T15:50:47.486Z,11.80
2023-04-24T15:53:14.362Z,11.80
2023-04-24T15:55:41.225Z,12.00
2023-04-24T15:58:08.102Z,12.10
2023-04-24T16:00:35.509Z,12.20
2023-04-24T16:03:03.073Z,12.20
2023-04-24T16:05:30.130Z,12.10
2023-04-24T16:07:57.400Z,12.00
2023-04-24T16:10:24.293Z,11.90
2023-04-24T16:12:54.570Z,11.90
2023-04-24T16:15:21.928Z,11.90
2023-04-24T16:17:50.237Z,12.00
2023-04-24T16:20:17.400Z,12.40
2023-04-24T16:22:44.344Z,12.40
2023-04-24T16:25:11.604Z,12.40
2023-04-24T16:27:38.793Z,12.50
2023-04-24T16:30:06.469Z,12.50
2023-04-24T16:32:33.338Z,12.60
2023-04-24T16:35:00.188Z,12.60
2023-04-24T16:37:29.264Z,12.60
2023-04-24T16:39:56.399Z,12.80
2023-04-24T16:42:23.268Z,12.50
2023-04-24T16:44:50.071Z,12.50
2023-04-24T16:47:17.254Z,12.50
2023-04-24T16:49:44.212Z,12.50
2023-04-24T16:52:11.723Z,12.50
2023-04-24T16:54:38.544Z,12.40
2023-04-24T16:57:07.374Z,12.60
2023-04-24T16:59:37.373Z,12.30
2023-04-24T17:02:04.285Z,12.30
2023-04-24T17:04:32.393Z,12.20
2023-04-24T17:06:59.392Z,12.20
2023-04-24T17:09:26.456Z,12.20
2023-04-24T17:11:53.348Z,12.40
2023-04-24T17:14:20.184Z,12.20
2023-04-24T17:16:47.159Z,12.20
2023-04-24T17:19:14.064Z,12.10
2023-04-24T17:21:41.075Z,12.10
2023-04-24T17:24:08.025Z,12.10
2023-04-24T17:26:34.904Z,12.20
2023-04-24T17:29:02.112Z,12.00
2023-04-24T17:31:29.005Z,12.00
2023-04-24T17:33:55.880Z,12.00
2023-04-24T17:36:25.603Z,11.90
2023-04-24T17:38:52.541Z,11.90
2023-04-24T17:41:19.697Z,11.80
2023-04-24T17:43:46.527Z,11.70
2023-04-24T17:46:13.576Z,11.50
2023-04-24T17:48:40.648Z,11.40
2023-04-24T17:51:08.190Z,11.30
2023-04-24T17:53:35.057Z,11.20
2023-04-24T17:56:03.403Z,11.00
2023-04-24T17:58:31.194Z,10.90
2023-04-24T18:00:58.122Z,10.90
2023-04-24T18:03:25.253Z,10.80
2023-04-24T18:05:52.692Z,10.80
2023-04-24T18:08:19.763Z,10.80
2023-04-24T18:10:46.800Z,10.80
2023-04-24T18:13:13.728Z,10.80
2023-04-24T18:15:43.148Z,10.90
2023-04-24T18:18:11.214Z,10.90
2023-04-24T18:20:38.357Z,11.00
2023-04-24T18:23:05.974Z,11.00
2023-04-24T18:25:33.056Z,11.00
2023-04-24T18:27:59.976Z,11.00
2023-04-24T18:30:28.099Z,11.10
2023-04-24T18:32:55.131Z,11.30
2023-04-24T18:35:22.715Z,11.00
2023-04-24T18:37:50.485Z,11.00
2023-04-24T18:40:17.816Z,11.00
2023-04-24T18:42:45.235Z,11.00
2023-04-24T18:45:14.588Z,11.00
2023-04-24T18:47:42.819Z,10.90
2023-04-24T18:50:10.467Z,10.80
2023-04-24T18:52:37.456Z,10.90
2023-04-24T18:55:07.094Z,11.10
2023-04-24T18:57:34.423Z,10.50
2023-04-24T19:00:01.934Z,10.80
2023-04-24T19:02:29.142Z,10.80
2023-04-24T19:04:56.245Z,10.70
2023-04-24T19:07:23.355Z,10.60
2023-04-24T19:09:50.356Z,10.60
2023-04-24T19:12:17.433Z,10.60
2023-04-24T19:14:45.770Z,10.60
2023-04-24T19:17:12.896Z,10.60
2023-04-24T19:19:40.091Z,10.60
2023-04-24T19:22:07.760Z,10.90
2023-04-24T19:24:34.893Z,10.60
2023-04-24T19:27:02.230Z,10.50
2023-04-24T19:29:29.157Z,10.50
2023-04-24T19:31:57.897Z,10.50
2023-04-24T19:34:26.007Z,10.40
2023-04-24T19:36:52.932Z,10.30
2023-04-24T19:39:19.789Z,10.20
2023-04-24T19:41:46.637Z,10.40
2023-04-24T19:44:15.288Z,10.10
2023-04-24T19:46:42.476Z,10.00
2023-04-24T19:49:09.420Z,10.00
2023-04-24T19:51:37.470Z,9.90
2023-04-24T19:54:06.290Z,9.80
2023-04-24T19:56:33.877Z,9.80
2023-04-24T19:59:01.063Z,9.70
2023-04-24T20:01:28.206Z,10.00
2023-04-24T20:03:55.407Z,9.80
2023-04-24T20:06:22.394Z,9.90
2023-04-24T20:08:49.550Z,10.00
2023-04-24T20:11:16.761Z,10.10
2023-04-24T20:13:43.822Z,10.00
2023-04-24T20:16:11.601Z,10.10
2023-04-24T20:18:38.852Z,10.20
2023-04-24T20:21:05.756Z,10.10
2023-04-24T20:23:32.699Z,10.40
2023-04-24T20:25:59.717Z,10.10
2023-04-24T20:28:28.259Z,10.10
2023-04-24T20:30:55.205Z,10.10
2023-04-24T20:33:22.308Z,10.10
2023-04-24T20:35:49.704Z,10.10
2023-04-24T20:38:18.554Z,10.10
2023-04-24T20:43:19.947Z,10.50
2023-04-24T20:45:47.638Z,10.20
2023-04-24T20:48:14.540Z,10.20
2023-04-24T20:50:42.100Z,10.30
2023-04-24T20:53:09.501Z,10.30
2023-04-24T20:55:36.888Z,10.20
2023-04-24T20:58:03.961Z,10.30
2023-04-24T21:00:31.345Z,10.30
2023-04-24T21:02:58.366Z,10.20
2023-04-24T21:05:26.407Z,10.20
2023-04-24T21:07:55.913Z,10.10
2023-04-24T21:10:26.311Z,10.20
2023-04-24T21:12:53.230Z,10.00
2023-04-24T21:15:20.067Z,9.90
2023-04-24T21:17:47.128Z,9.90
2023-04-24T21:20:14.143Z,9.90
2023-04-24T21:22:41.282Z,9.90
2023-04-24T21:25:08.646Z,9.90
2023-04-24T21:27:36.342Z,10.00
2023-04-24T21:30:07.532Z,10.10
2023-04-24T21:32:34.574Z,10.00
2023-04-24T21:35:01.426Z,10.30
2023-04-24T21:37:28.275Z,10.10
2023-04-24T21:39:55.146Z,10.10
2023-04-24T21:42:22.079Z,10.10
2023-04-24T21:44:49.021Z,10.20
2023-04-24T21:47:15.962Z,10.30
2023-04-24T21:49:42.989Z,10.20
2023-04-24T21:52:09.951Z,10.20
2023-04-24T21:54:36.855Z,10.20
2023-04-24T21:57:03.732Z,10.10
2023-04-24T21:59:30.995Z,10.10
2023-04-24T22:01:57.984Z,10.10
2023-04-24T22:04:25.351Z,10.10
2023-04-24T22:06:53.355Z,10.10
2023-04-24T22:09:20.329Z,10.10
2023-04-24T22:11:47.713Z,10.10
2023-04-24T22:14:15.048Z,10.10
2023-04-24T22:16:41.882Z,10.30
2023-04-24T22:19:09.512Z,10.10
2023-04-24T22:21:36.849Z,10.10
2023-04-24T22:24:04.017Z,10.30
2023-04-24T22:26:30.888Z,10.10
2023-04-24T22:28:57.879Z,10.10
2023-04-24T22:31:24.785Z,10.20
2023-04-24T22:33:52.162Z,10.10
2023-04-24T22:36:19.280Z,10.20
2023-04-24T22:38:46.228Z,10.20
2023-04-24T22:41:14.368Z,10.10
2023-04-24T22:43:41.339Z,10.30
2023-04-24T22:46:08.227Z,10.10
2023-04-24T22:48:35.161Z,10.10
2023-04-24T22:51:02.574Z,10.00
2023-04-24T22:53:29.443Z,10.00
2023-04-24T22:55:56.997Z,10.00
2023-04-24T22:58:24.880Z,10.20
2023-04-24T23:00:52.039Z,10.00
2023-04-24T23:03:19.182Z,10.00
2023-04-24T23:05:46.205Z,9.90
2023-04-24T23:08:13.033Z,9.90
2023-04-24T23:10:40.080Z,9.90
2023-04-24T23:13:06.960Z,9.60
2023-04-24T23:15:34.602Z,10.00
2023-04-24T23:18:01.669Z,10.00
2023-04-24T23:20:28.646Z,10.00
2023-04-24T23:22:55.671Z,10.10
2023-04-24T23:25:22.745Z,10.10
2023-04-24T23:27:49.608Z,10.10
2023-04-24T23:30:16.479Z,10.10
2023-04-24T23:32:44.187Z,10.10
2023-04-24T23:35:11.741Z,10.20
2023-04-24T23:37:38.818Z,10.10
2023-04-24T23:40:09.588Z,10.20
2023-04-24T23:42:36.897Z,10.20
2023-04-24T23:45:04.555Z,10.20
2023-04-24T23:47:31.517Z,10.20
2023-04-24T23:49:58.372Z,10.20
2023-04-24T23:52:25.311Z,10.20
2023-04-24T23:54:52.184Z,10.20
2023-04-24T23:57:19.434Z,10.10
2023-04-24T23:59:46.554Z,10.10
